Time;durP1;ratioP1;P1;durP2;ratioP2;P2;SDS_P1;SDS_P2;PMS_P1;PMS_P2;Temp;Humidity;BMP_temperature;BMP_pressure;BME280_temperature;BME280_humidity;BME280_pressure;Samples;Min_cycle;Max_cycle;Signal;HPM_P1;HPM_P2
2023/04/17 00:02:09;;;;;;;;;;;;;;;19.05;49.59;102395.56;7256126;19;152979;-54
2023/04/17 00:04:37;;;;;;;;;;;;;;;19.05;49.38;102395.56;7256146;19;152671;-54
2023/04/17 00:07:04;;;;;;;;;;;;;;;19.05;49.73;102392.75;7255660;19;154063;-54
2023/04/17 00:09:32;;;;;;;;;;;;;;;19.06;49.53;102390.81;7255596;19;154381;-54
2023/04/17 00:11:59;;;;;;;;;;;;;;;19.05;49.60;102394.72;7257077;19;152646;-54
2023/04/17 00:14:27;;;;;;;;;;;;;;;19.05;49.77;102398.38;7264395;19;153682;-54
2023/04/17 00:16:54;;;;;;;;;;;;;;;19.04;49.73;102407.03;7256990;19;152214;-54
2023/04/17 00:19:21;;;;;;;;;;;;;;;19.02;49.65;102398.91;7251150;19;155299;-54
2023/04/17 00:21:48;;;;;;;;;;;;;;;19.02;49.76;102401.69;7256253;19;153605;-54
2023/04/17 00:24:15;;;;;;;;;;;;;;;19.00;49.68;102409.50;7259335;19;152845;-54
2023/04/17 00:26:44;;;;;;;;;;;;;;;19.03;49.79;102410.94;7256316;19;154377;-55
2023/04/17 00:29:12;;;;;;;;;;;;;;;19.01;50.01;102411.19;7254121;19;153059;-55
2023/04/17 00:31:39;;;;;;;;;;;;;;;19.00;49.83;102417.91;7254691;19;153355;-57
2023/04/17 00:34:06;;;;;;;;;;;;;;;19.00;49.74;102409.50;7254207;19;153273;-54
2023/04/17 00:36:33;;;;;;;;;;;;;;;19.00;49.68;102401.09;7261164;19;152890;-54
2023/04/17 00:39:00;;;;;;;;;;;;;;;18.99;50.10;102406.94;7254424;19;155410;-54
2023/04/17 00:41:27;;;;;;;;;;;;;;;18.99;50.06;102395.75;7255898;19;153896;-54
2023/04/17 00:43:54;;;;;;;;;;;;;;;18.98;49.79;102394.94;7259682;19;153410;-54
2023/04/17 00:46:21;;;;;;;;;;;;;;;18.96;50.14;102397.13;7252633;19;153405;-54
2023/04/17 00:48:48;;;;;;;;;;;;;;;18.96;50.18;102387.88;7253755;19;153952;-55
2023/04/17 00:51:15;;;;;;;;;;;;;;;18.96;50.09;102387.88;7254418;19;153857;-55
2023/04/17 00:53:42;;;;;;;;;;;;;;;18.94;50.30;102396.53;7258135;19;154136;-55
2023/04/17 00:56:09;;;;;;;;;;;;;;;18.94;50.08;102385.34;7253945;19;153916;-54
2023/04/17 00:58:36;;;;;;;;;;;;;;;18.95;50.14;102386.19;7263634;19;152669;-55
2023/04/17 01:01:04;;;;;;;;;;;;;;;18.92;50.69;102384.78;7257417;19;153195;-55
2023/04/17 01:03:31;;;;;;;;;;;;;;;18.90;50.86;102391.72;7254470;19;153940;-55
2023/04/17 01:05:58;;;;;;;;;;;;;;;18.89;50.95;102392.84;7256360;19;153694;-54
2023/04/17 01:08:25;;;;;;;;;;;;;;;18.87;50.87;102393.09;7258101;19;152588;-54
2023/04/17 01:10:54;;;;;;;;;;;;;;;18.86;50.94;102397.00;7258387;19;152693;-54
2023/04/17 01:13:21;;;;;;;;;;;;;;;18.84;50.96;102388.03;7255600;19;154547;-55
2023/04/17 01:15:48;;;;;;;;;;;;;;;18.82;51.08;102381.84;7255636;19;152159;-54
2023/04/17 01:18:15;;;;;;;;;;;;;;;18.82;51.33;102400.59;7256091;19;153249;-55
2023/04/17 01:20:42;;;;;;;;;;;;;;;18.79;51.36;102390.78;7263473;19;153522;-55
2023/04/17 01:23:09;;;;;;;;;;;;;;;18.79;51.49;102396.38;7254806;19;153289;-55
2023/04/17 01:25:35;;;;;;;;;;;;;;;18.75;51.62;102395.22;7255596;19;154292;-55
2023/04/17 01:28:02;;;;;;;;;;;;;;;18.74;52.04;102387.91;7257241;19;153210;-55
2023/04/17 01:30:29;;;;;;;;;;;;;;;18.72;51.90;102394.88;7256299;19;152980;-56
2023/04/17 01:32:56;;;;;;;;;;;;;;;18.71;52.12;102394.03;7250117;19;154190;-54
2023/04/17 01:35:25;;;;;;;;;;;;;;;18.72;52.25;102392.91;7254989;19;152745;-55
2023/04/17 01:37:52;;;;;;;;;;;;;;;18.69;52.29;102387.84;7252559;19;154171;-56
2023/04/17 01:40:19;;;;;;;;;;;;;;;18.72;52.68;102380.88;7257581;19;152357;-58
2023/04/17 01:42:46;;;;;;;;;;;;;;;18.70;52.36;102386.75;7267704;19;152211;-54
2023/04/17 01:45:12;;;;;;;;;;;;;;;18.67;52.68;102385.28;7260981;19;154179;-55
2023/04/17 01:47:39;;;;;;;;;;;;;;;18.67;52.72;102382.50;7261341;19;152648;-55
2023/04/17 01:50:07;;;;;;;;;;;;;;;18.66;52.79;102379.97;7261307;19;153388;-55
2023/04/17 01:52:35;;;;;;;;;;;;;;;18.63;53.07;102374.88;7258466;19;154258;-54
2023/04/17 01:55:08;;;;;;;;;;;;;;;18.68;52.85;102377.75;7263504;19;152726;-55
2023/04/17 01:57:34;;;;;;;;;;;;;;;18.69;52.73;102379.44;7261690;19;154027;-55
2023/04/17 02:00:08;;;;;;;;;;;;;;;18.64;52.76;102374.63;7261949;19;154476;-55
2023/04/17 02:02:35;;;;;;;;;;;;;;;18.64;52.91;102370.97;7267282;19;152370;-55
2023/04/17 02:05:02;;;;;;;;;;;;;;;18.63;53.16;102375.72;7256417;19;154675;-55
2023/04/17 02:07:29;;;;;;;;;;;;;;;18.62;53.24;102370.41;7261273;19;153062;-55
2023/04/17 02:09:56;;;;;;;;;;;;;;;18.61;53.26;102372.38;7263303;19;152932;-54
2023/04/17 02:12:23;;;;;;;;;;;;;;;18.62;53.18;102370.41;7259370;19;154076;-54
2023/04/17 02:14:49;;;;;;;;;;;;;;;18.60;53.21;102373.47;7260181;19;152466;-55
2023/04/17 02:17:17;;;;;;;;;;;;;;;18.61;52.85;102377.97;7257468;19;153124;-55
2023/04/17 02:19:44;;;;;;;;;;;;;;;18.60;53.13;102381.88;7258078;19;154130;-54
2023/04/17 02:22:16;;;;;;;;;;;;;;;18.57;52.96;102374.00;7261284;19;153573;-54
2023/04/17 02:24:43;;;;;;;;;;;;;;;18.58;53.12;102374.81;7271316;19;153187;-55
2023/04/17 02:27:10;;;;;;;;;;;;;;;18.57;53.24;102375.94;7261270;19;152185;-54
2023/04/17 02:29:37;;;;;;;;;;;;;;;18.55;53.10;102378.16;7262661;19;153557;-55
2023/04/17 02:32:04;;;;;;;;;;;;;;;18.54;53.11;102374.50;7260822;19;153675;-60
2023/04/17 02:34:31;;;;;;;;;;;;;;;18.53;53.23;102374.78;7260129;19;152339;-55
2023/04/17 02:36:57;;;;;;;;;;;;;;;18.51;53.43;102371.34;7257894;19;154065;-55
2023/04/17 02:39:26;;;;;;;;;;;;;;;18.50;53.29;102373.28;7259301;19;153569;-55
2023/04/17 02:41:53;;;;;;;;;;;;;;;18.50;53.25;102378.03;7257889;19;152328;-55
2023/04/17 02:44:20;;;;;;;;;;;;;;;18.47;53.73;102384.16;7262756;19;153992;-55
2023/04/17 02:46:46;;;;;;;;;;;;;;;18.48;53.75;102381.13;7266525;19;154104;-55
2023/04/17 02:49:13;;;;;;;;;;;;;;;18.48;53.35;102367.13;7260605;19;152434;-55
2023/04/17 02:51:40;;;;;;;;;;;;;;;18.46;53.49;102377.72;7254924;19;153959;-55
2023/04/17 02:54:07;;;;;;;;;;;;;;;18.45;53.70;102377.97;7260011;19;153943;-55
2023/04/17 02:56:34;;;;;;;;;;;;;;;18.45;53.74;102383.56;7260209;19;152999;-55
2023/04/17 02:59:01;;;;;;;;;;;;;;;18.43;53.50;102383.84;7259465;19;154009;-54
2023/04/17 03:01:28;;;;;;;;;;;;;;;18.44;53.56;102377.13;7255363;19;152953;-54
2023/04/17 03:03:55;;;;;;;;;;;;;;;18.40;53.86;102387.16;7257801;19;153077;-54
2023/04/17 03:06:23;;;;;;;;;;;;;;;18.39;54.07;102388.28;7255804;19;153210;-54
2023/04/17 03:08:50;;;;;;;;;;;;;;;18.39;53.88;102387.44;7266212;19;151883;-54
2023/04/17 03:11:17;;;;;;;;;;;;;;;18.39;53.80;102381.84;7257630;19;154359;-55
2023/04/17 03:13:44;;;;;;;;;;;;;;;18.39;53.88;102384.63;7260550;19;153766;-55
2023/04/17 03:16:11;;;;;;;;;;;;;;;18.37;53.91;102390.47;7255411;19;152598;-55
2023/04/17 03:18:39;;;;;;;;;;;;;;;18.37;53.84;102393.28;7256990;19;153519;-54
2023/04/17 03:21:07;;;;;;;;;;;;;;;18.37;53.94;102396.06;7254641;19;151828;-55
2023/04/17 03:23:34;;;;;;;;;;;;;;;18.36;54.18;102399.97;7258665;19;153288;-55
2023/04/17 03:26:06;;;;;;;;;;;;;;;18.36;54.01;102399.13;7259086;19;153638;-55
2023/04/17 03:28:33;;;;;;;;;;;;;;;18.37;54.01;102403.63;7260989;19;153060;-55
2023/04/17 03:31:00;;;;;;;;;;;;;;;18.34;54.00;102401.34;7264112;19;153763;-55
2023/04/17 03:33:28;;;;;;;;;;;;;;;18.32;54.20;102398.78;7258983;19;153129;-54
2023/04/17 03:35:56;;;;;;;;;;;;;;;18.31;54.44;102399.03;7258336;19;153425;-54
2023/04/17 03:38:23;;;;;;;;;;;;;;;18.31;54.43;102405.47;7256578;19;153623;-55
2023/04/17 03:40:50;;;;;;;;;;;;;;;18.29;54.34;102413.31;7258854;19;155917;-54
2023/04/17 03:43:17;;;;;;;;;;;;;;;18.29;54.19;102412.47;7258441;19;153667;-54
2023/04/17 03:45:44;;;;;;;;;;;;;;;18.28;54.17;102406.00;7257336;19;154264;-54
2023/04/17 03:48:11;;;;;;;;;;;;;;;18.28;54.17;102413.56;7256294;19;152986;-54
2023/04/17 03:50:38;;;;;;;;;;;;;;;18.26;54.53;102413.81;7256938;19;153296;-55
2023/04/17 03:53:06;;;;;;;;;;;;;;;18.27;54.55;102412.69;7266251;19;154435;-55
2023/04/17 03:55:33;;;;;;;;;;;;;;;18.26;54.43;102412.97;7260816;19;154357;-55
2023/04/17 03:58:00;;;;;;;;;;;;;;;18.25;54.62;102411.28;7254954;19;154134;-54
2023/04/17 04:00:27;;;;;;;;;;;;;;;18.23;54.90;102414.31;7259797;19;152404;-54
2023/04/17 04:02:54;;;;;;;;;;;;;;;18.23;54.83;102420.78;7255520;19;153922;-54
2023/04/17 04:05:22;;;;;;;;;;;;;;;18.22;54.75;102419.06;7256309;19;155044;-54
2023/04/17 04:07:49;;;;;;;;;;;;;;;18.23;54.92;102420.78;7256975;19;152705;-55
2023/04/17 04:10:16;;;;;;;;;;;;;;;18.20;55.09;102415.69;7258637;19;154129;-54
2023/04/17 04:12:43;;;;;;;;;;;;;;;18.19;54.98;102408.41;7263258;19;153708;-55
2023/04/17 04:15:10;;;;;;;;;;;;;;;18.19;55.14;102415.94;7259417;19;152768;-54
2023/04/17 04:17:38;;;;;;;;;;;;;;;18.20;55.33;102418.50;7251723;19;153324;-54
2023/04/17 04:20:07;;;;;;;;;;;;;;;18.20;55.63;102424.09;7257623;19;152210;-55
2023/04/17 04:22:35;;;;;;;;;;;;;;;18.23;55.47;102426.38;7257899;19;153820;-54
2023/04/17 04:25:02;;;;;;;;;;;;;;;18.29;55.56;102427.28;7260902;19;154342;-55
2023/04/17 04:27:32;;;;;;;;;;;;;;;18.34;55.33;102427.38;7261035;19;153039;-54
2023/04/17 04:30:00;;;;;;;;;;;;;;;18.40;55.62;102425.47;7258772;19;153109;-55
2023/04/17 04:32:28;;;;;;;;;;;;;;;18.44;55.50;102435.88;7251499;19;153668;-54
2023/04/17 04:34:57;;;;;;;;;;;;;;;18.50;55.56;102428.41;7263499;19;152039;-54
2023/04/17 04:37:28;;;;;;;;;;;;;;;18.55;55.71;102436.94;7252952;19;154124;-54
2023/04/17 04:40:09;;;;;;;;;;;;;;;18.59;55.62;102436.16;7256932;19;153905;-54
2023/04/17 04:42:41;;;;;;;;;;;;;;;18.64;55.81;102433.41;7256862;19;154189;-54
2023/04/17 04:45:08;;;;;;;;;;;;;;;18.71;55.89;102436.03;7251913;19;153946;-55
2023/04/17 04:47:35;;;;;;;;;;;;;;;18.74;56.25;102438.31;7255130;19;152493;-55
2023/04/17 04:50:03;;;;;;;;;;;;;;;18.81;56.10;102449.31;7254795;19;153611;-55
2023/04/17 04:52:30;;;;;;;;;;;;;;;18.84;56.48;102444.06;7254017;19;153446;-55
2023/04/17 04:54:58;;;;;;;;;;;;;;;18.89;56.54;102438.50;7259051;19;153246;-55
2023/04/17 04:57:25;;;;;;;;;;;;;;;18.95;56.38;102439.41;7262246;19;153996;-55
2023/04/17 04:59:53;;;;;;;;;;;;;;;19.00;56.05;102436.66;7255005;19;152978;-55
2023/04/17 05:02:20;;;;;;;;;;;;;;;19.05;55.80;102429.19;7252912;19;155077;-54
2023/04/17 05:04:48;;;;;;;;;;;;;;;19.10;55.59;102426.44;7255693;19;154678;-54
2023/04/17 05:07:16;;;;;;;;;;;;;;;19.16;55.99;102432.94;7254248;19;153010;-55
2023/04/17 05:09:45;;;;;;;;;;;;;;;19.21;55.41;102427.41;7255058;19;153175;-54
2023/04/17 05:12:12;;;;;;;;;;;;;;;19.27;55.32;102423.53;7253824;19;154285;-54
2023/04/17 05:14:40;;;;;;;;;;;;;;;19.33;55.45;102427.25;7257878;19;152022;-54
2023/04/17 05:17:07;;;;;;;;;;;;;;;19.39;55.22;102426.19;7265270;19;153559;-55
2023/04/17 05:19:35;;;;;;;;;;;;;;;19.44;55.55;102423.47;7265850;19;153659;-54
2023/04/17 05:22:03;;;;;;;;;;;;;;;19.50;55.40;102419.59;7261459;19;153729;-54
2023/04/17 05:24:30;;;;;;;;;;;;;;;19.54;55.21;102412.34;7262345;19;154033;-55
2023/04/17 05:26:57;;;;;;;;;;;;;;;19.60;55.14;102407.63;7260086;19;152524;-55
2023/04/17 05:29:24;;;;;;;;;;;;;;;19.65;55.19;102400.13;7262164;19;154109;-54
2023/04/17 05:31:52;;;;;;;;;;;;;;;19.70;54.99;102402.97;7262148;19;154396;-54
2023/04/17 05:34:20;;;;;;;;;;;;;;;19.75;55.10;102391.78;7259872;19;154279;-54
2023/04/17 05:36:47;;;;;;;;;;;;;;;19.82;54.72;102402.78;7262701;19;153399;-55
2023/04/17 05:39:17;;;;;;;;;;;;;;;19.86;54.78;102403.91;7263454;19;153449;-54
2023/04/17 05:41:45;;;;;;;;;;;;;;;19.91;54.36;102403.97;7272323;19;152714;-54
2023/04/17 05:44:12;;;;;;;;;;;;;;;19.97;54.43;102414.13;7261176;19;154829;-55
2023/04/17 05:46:39;;;;;;;;;;;;;;;20.01;54.06;102414.41;7259239;19;153025;-54
2023/04/17 05:49:07;;;;;;;;;;;;;;;20.07;54.25;102418.97;7262187;19;153552;-54
2023/04/17 05:51:36;;;;;;;;;;;;;;;20.13;53.93;102429.09;7260283;19;152908;-55
2023/04/17 05:54:03;;;;;;;;;;;;;;;20.18;53.44;102432.78;7262080;19;152002;-54
2023/04/17 05:56:31;;;;;;;;;;;;;;;20.23;53.19;102430.00;7262096;19;154014;-55
2023/04/17 05:58:59;;;;;;;;;;;;;;;20.28;53.29;102432.00;7260901;19;154293;-55
2023/04/17 06:01:28;;;;;;;;;;;;;;;20.33;53.06;102423.66;7257685;19;154308;-54
2023/04/17 06:03:57;;;;;;;;;;;;;;;20.38;52.78;102421.75;7267396;19;155343;-55
2023/04/17 06:06:28;;;;;;;;;;;;;;;20.42;52.41;102417.25;7260293;19;152275;-55
2023/04/17 06:09:00;;;;;;;;;;;;;;;20.48;53.01;102426.56;7265220;19;152717;-55
2023/04/17 06:11:29;;;;;;;;;;;;;;;20.53;52.52;102426.59;7254678;19;152972;-55
2023/04/17 06:14:02;;;;;;;;;;;;;;;20.57;51.85;102424.94;7262056;19;152604;-55
2023/04/17 06:16:33;;;;;;;;;;;;;;;20.61;52.08;102431.69;7263924;19;152909;-55
2023/04/17 06:19:03;;;;;;;;;;;;;;;20.66;51.87;102431.72;7259803;19;153127;-55
2023/04/17 06:21:31;;;;;;;;;;;;;;;20.69;51.70;102428.34;7259029;19;152156;-56
2023/04/17 06:23:58;;;;;;;;;;;;;;;20.72;50.89;102433.41;7262742;19;153369;-55
2023/04/17 06:26:25;;;;;;;;;;;;;;;20.75;51.14;102446.09;7257645;19;151977;-55
2023/04/17 06:28:53;;;;;;;;;;;;;;;20.78;50.75;102446.38;7259503;19;153107;-55
2023/04/17 06:31:20;;;;;;;;;;;;;;;20.82;50.39;102455.94;7257375;19;154362;-54
2023/04/17 06:33:49;;;;;;;;;;;;;;;20.84;50.32;102458.50;7259008;19;153246;-54
2023/04/17 06:36:16;;;;;;;;;;;;;;;20.87;50.35;102457.94;7258038;19;152487;-54
2023/04/17 06:38:43;;;;;;;;;;;;;;;20.91;50.38;102461.03;7257638;19;152406;-54
2023/04/17 06:41:10;;;;;;;;;;;;;;;20.95;50.39;102464.97;7258172;19;153856;-54
2023/04/17 06:43:37;;;;;;;;;;;;;;;20.97;50.08;102468.38;7260220;19;152553;-54
2023/04/17 06:46:04;;;;;;;;;;;;;;;20.99;50.09;102477.34;7264521;19;152392;-54
2023/04/17 06:48:31;;;;;;;;;;;;;;;20.98;49.36;102481.31;7258926;19;153954;-55
2023/04/17 06:50:58;;;;;;;;;;;;;;;20.98;49.21;102481.31;7254037;19;153181;-55
2023/04/17 06:53:26;;;;;;;;;;;;;;;21.01;49.12;102486.38;7258203;19;153265;-55
2023/04/17 06:55:53;;;;;;;;;;;;;;;21.04;49.11;102480.19;7256875;19;154976;-55
2023/04/17 06:58:20;;;;;;;;;;;;;;;21.06;48.75;102483.59;7253955;19;152323;-55
2023/04/17 07:00:47;;;;;;;;;;;;;;;21.08;49.07;102486.94;7254802;19;153011;-55
2023/04/17 07:03:15;;;;;;;;;;;;;;;21.09;48.73;102495.13;7256452;19;153925;-55
2023/04/17 07:05:43;;;;;;;;;;;;;;;21.11;48.82;102504.13;7252817;19;155254;-55
2023/04/17 07:08:10;;;;;;;;;;;;;;;21.12;48.67;102511.41;7265107;19;153064;-55
2023/04/17 07:10:37;;;;;;;;;;;;;;;21.14;48.56;102522.44;7257491;19;153845;-55
2023/04/17 07:13:03;;;;;;;;;;;;;;;21.14;48.35;102525.25;7257414;19;152692;-55
2023/04/17 07:15:30;;;;;;;;;;;;;;;21.15;48.49;102530.59;7257987;19;153720;-55
2023/04/17 07:17:57;;;;;;;;;;;;;;;21.16;48.08;102526.69;7253590;19;155038;-55
2023/04/17 07:20:24;;;;;;;;;;;;;;;21.14;47.77;102526.09;7256550;19;152090;-55
2023/04/17 07:22:51;;;;;;;;;;;;;;;21.15;48.43;102536.22;7254728;19;153616;-57
2023/04/17 07:25:18;;;;;;;;;;;;;;;21.19;48.12;102531.75;7256932;19;152503;-56
2023/04/17 07:27:45;;;;;;;;;;;;;;;21.19;47.74;102534.56;7255668;19;153252;-58
2023/04/17 07:30:12;;;;;;;;;;;;;;;21.21;47.87;102521.06;7262137;19;153140;-55
2023/04/17 07:32:39;;;;;;;;;;;;;;;21.24;48.54;102525.28;7254140;19;153305;-55
2023/04/17 07:35:07;;;;;;;;;;;;;;;21.27;48.36;102527.53;7257947;19;152979;-56
2023/04/17 07:37:35;;;;;;;;;;;;;;;21.26;48.15;102529.50;7253497;19;154357;-55
2023/04/17 07:40:04;;;;;;;;;;;;;;;21.28;48.22;102520.81;7255534;19;152582;-55
2023/04/17 07:42:32;;;;;;;;;;;;;;;21.28;48.03;102523.63;7254979;19;154036;-56
2023/04/17 07:44:59;;;;;;;;;;;;;;;21.28;47.61;102524.47;7255631;19;153255;-56
2023/04/17 07:47:26;;;;;;;;;;;;;;;21.28;47.93;102532.91;7254530;19;152984;-55
2023/04/17 07:49:53;;;;;;;;;;;;;;;21.27;47.61;102528.41;7254399;19;153288;-56
2023/04/17 07:52:20;;;;;;;;;;;;;;;21.28;47.44;102520.81;7262950;19;153450;-56
2023/04/17 07:54:47;;;;;;;;;;;;;;;21.27;47.41;102530.34;7255861;19;152965;-56
2023/04/17 07:57:14;;;;;;;;;;;;;;;21.27;47.66;102531.19;7252491;19;153740;-56
2023/04/17 07:59:41;;;;;;;;;;;;;;;21.28;47.13;102544.16;7254345;19;154124;-56
2023/04/17 08:02:08;;;;;;;;;;;;;;;21.30;47.04;102529.81;7253654;19;153865;-55
2023/04/17 08:04:36;;;;;;;;;;;;;;;21.30;47.13;102536.28;7254242;19;153315;-56
2023/04/17 08:07:03;;;;;;;;;;;;;;;21.33;47.29;102539.66;7254849;19;153352;-55
2023/04/17 08:09:30;;;;;;;;;;;;;;;21.36;47.11;102536.28;7255209;19;153966;-56
2023/04/17 08:11:57;;;;;;;;;;;;;;;21.37;47.05;102538.00;7252708;19;152453;-55
2023/04/17 08:14:24;;;;;;;;;;;;;;;21.38;47.06;102536.88;7261896;19;154138;-55
2023/04/17 08:16:51;;;;;;;;;;;;;;;21.42;47.30;102546.44;7252159;19;152554;-56
2023/04/17 08:19:18;;;;;;;;;;;;;;;21.43;46.72;102551.81;7252966;19;153127;-55
2023/04/17 08:21:46;;;;;;;;;;;;;;;21.46;46.65;102556.03;7254578;19;153316;-55
2023/04/17 08:24:14;;;;;;;;;;;;;;;21.47;46.77;102554.91;7253561;19;153050;-56
2023/04/17 08:26:45;;;;;;;;;;;;;;;21.51;46.57;102562.50;7255564;19;154386;-56
2023/04/17 08:29:12;;;;;;;;;;;;;;;21.53;46.85;102559.44;7254325;19;153018;-56
2023/04/17 08:31:40;;;;;;;;;;;;;;;21.54;46.75;102566.72;7252069;19;152589;-56
2023/04/17 08:34:07;;;;;;;;;;;;;;;21.55;46.62;102572.09;7263468;19;153760;-56
2023/04/17 08:36:41;;;;;;;;;;;;;;;21.57;46.16;102566.19;7254513;19;153827;-56
2023/04/17 08:39:11;;;;;;;;;;;;;;;21.58;46.38;102568.72;7254040;19;153868;-56
2023/04/17 08:41:41;;;;;;;;;;;;;;;21.59;46.06;102561.97;7251935;19;153038;-56
2023/04/17 08:44:09;;;;;;;;;;;;;;;21.60;46.17;102563.66;7252197;19;153998;-56
2023/04/17 08:46:36;;;;;;;;;;;;;;;21.62;46.23;102571.84;7251937;19;152569;-56
2023/04/17 08:49:04;;;;;;;;;;;;;;;21.61;46.16;102573.81;7253635;19;153285;-56
2023/04/17 08:51:31;;;;;;;;;;;;;;;21.63;45.87;102565.91;7256479;19;154574;-56
2023/04/17 08:53:58;;;;;;;;;;;;;;;21.62;45.64;102571.84;7263975;19;152371;-56
2023/04/17 08:56:27;;;;;;;;;;;;;;;21.63;45.85;102576.31;7266073;19;154068;-56
2023/04/17 08:58:54;;;;;;;;;;;;;;;21.62;46.04;102577.47;7261427;19;153268;-56
2023/04/17 09:01:24;;;;;;;;;;;;;;;21.63;46.01;102579.13;7256904;19;153540;-56
2023/04/17 09:03:53;;;;;;;;;;;;;;;21.62;45.71;102583.09;7259517;19;153784;-56
2023/04/17 09:06:20;;;;;;;;;;;;;;;21.61;45.84;102587.88;7260711;19;154003;-56
2023/04/17 09:08:50;;;;;;;;;;;;;;;21.61;45.63;102593.50;7260741;19;153692;-56
2023/04/17 09:11:19;;;;;;;;;;;;;;;21.61;45.75;102589.84;7259209;19;153034;-56
2023/04/17 09:13:48;;;;;;;;;;;;;;;21.60;45.35;102591.78;7263601;19;153772;-56
2023/04/17 09:16:15;;;;;;;;;;;;;;;21.60;45.29;102588.13;7257297;19;153841;-56
2023/04/17 09:18:44;;;;;;;;;;;;;;;21.58;45.69;102594.03;7267450;19;153496;-56
2023/04/17 09:21:17;;;;;;;;;;;;;;;21.57;45.55;102580.25;7256941;19;153046;-56
2023/04/17 09:23:47;;;;;;;;;;;;;;;21.58;45.32;102584.75;7261551;19;154423;-56
2023/04/17 09:26:14;;;;;;;;;;;;;;;21.56;44.97;102585.03;7260738;19;153793;-56
2023/04/17 09:28:59;;;;;;;;;;;;;;;21.58;45.07;102574.34;7260294;19;152353;-56
2023/04/17 09:31:33;;;;;;;;;;;;;;;21.57;44.80;102577.44;7257428;19;154184;-56
2023/04/17 09:34:03;;;;;;;;;;;;;;;21.56;44.95;102572.94;7259426;19;152279;-55
2023/04/17 09:36:31;;;;;;;;;;;;;;;21.55;44.86;102565.63;7258702;19;152787;-56
2023/04/17 09:38:59;;;;;;;;;;;;;;;21.54;44.92;102563.91;7257454;19;153981;-55
2023/04/17 09:41:31;;;;;;;;;;;;;;;21.54;45.10;102567.56;7261697;19;153383;-56
2023/04/17 09:44:00;;;;;;;;;;;;;;;21.52;44.62;102560.56;7257800;19;154684;-56
2023/04/17 09:46:30;;;;;;;;;;;;;;;21.52;44.66;102557.75;7259028;19;154269;-56
2023/04/17 09:49:00;;;;;;;;;;;;;;;21.51;44.89;102558.84;7261818;19;152853;-56
2023/04/17 09:51:28;;;;;;;;;;;;;;;21.51;44.61;102564.47;7257394;19;153216;-56
2023/04/17 09:53:59;;;;;;;;;;;;;;;21.47;44.78;102561.38;7261529;19;153812;-56
2023/04/17 09:56:28;;;;;;;;;;;;;;;21.48;44.42;102556.59;7260448;19;154744;-56
2023/04/17 09:58:56;;;;;;;;;;;;;;;21.46;44.74;102559.69;7260166;19;152325;-56
2023/04/17 10:01:24;;;;;;;;;;;;;;;21.43;44.71;102551.81;7256104;19;153326;-56
2023/04/17 10:03:56;;;;;;;;;;;;;;;21.42;44.71;102560.50;7265825;19;153604;-56
2023/04/17 10:06:25;;;;;;;;;;;;;;;21.40;44.41;102569.22;7257399;19;154107;-55
2023/04/17 10:08:55;;;;;;;;;;;;;;;21.40;44.18;102562.72;7259047;19;153623;-56
2023/04/17 10:11:26;;;;;;;;;;;;;;;21.39;44.72;102566.69;7258335;19;153500;-55
2023/04/17 10:14:01;;;;;;;;;;;;;;;21.38;44.62;102559.38;7260427;19;153051;-56
2023/04/17 10:16:31;;;;;;;;;;;;;;;21.33;44.53;102563.00;7259913;19;154155;-56
2023/04/17 10:19:02;;;;;;;;;;;;;;;21.29;44.82;102567.50;7257797;19;152675;-56
2023/04/17 10:21:29;;;;;;;;;;;;;;;21.30;44.76;102561.56;7256677;19;153397;-56
2023/04/17 10:23:58;;;;;;;;;;;;;;;21.37;44.65;102558.53;7258407;19;154773;-56
2023/04/17 10:26:26;;;;;;;;;;;;;;;21.44;44.31;102570.34;7263100;19;153197;-56
2023/04/17 10:28:54;;;;;;;;;;;;;;;21.40;44.34;102563.59;7258254;19;154739;-56
2023/04/17 10:31:22;;;;;;;;;;;;;;;21.46;44.04;102556.03;7257157;19;153577;-56
2023/04/17 10:33:53;;;;;;;;;;;;;;;21.44;44.47;102563.91;7258311;19;152391;-56
2023/04/17 10:36:23;;;;;;;;;;;;;;;21.45;44.34;102557.97;7257537;19;153965;-56
2023/04/17 10:38:50;;;;;;;;;;;;;;;21.43;44.47;102556.59;7257147;19;153186;-56
2023/04/17 10:41:19;;;;;;;;;;;;;;;21.45;44.38;102557.97;7257650;19;152070;-56
2023/04/17 10:43:48;;;;;;;;;;;;;;;21.46;44.57;102547.59;7259148;19;154135;-56
2023/04/17 10:46:15;;;;;;;;;;;;;;;21.45;44.07;102548.69;7262560;19;153305;-56
2023/04/17 10:48:45;;;;;;;;;;;;;;;21.48;44.51;102554.63;7259451;19;153361;-56
2023/04/17 10:51:15;;;;;;;;;;;;;;;21.50;44.22;102558.00;7256771;19;154207;-56
2023/04/17 10:53:45;;;;;;;;;;;;;;;21.49;44.27;102556.31;7256923;19;152043;-56
2023/04/17 10:56:17;;;;;;;;;;;;;;;21.53;44.08;102548.19;7256903;19;152834;-56
2023/04/17 10:58:47;;;;;;;;;;;;;;;21.51;44.14;102550.41;7253407;19;152567;-55
2023/04/17 11:01:15;;;;;;;;;;;;;;;21.50;44.34;102557.16;7254787;19;153455;-56
2023/04/17 11:03:43;;;;;;;;;;;;;;;21.49;44.16;102547.88;7255490;19;153946;-56
2023/04/17 11:06:11;;;;;;;;;;;;;;;21.45;44.15;102546.72;7253230;19;153190;-56
2023/04/17 11:08:38;;;;;;;;;;;;;;;21.50;44.25;102554.34;7263674;19;153661;-56
2023/04/17 11:11:10;;;;;;;;;;;;;;;21.49;44.41;102550.69;7254357;19;153860;-56
2023/04/17 11:13:40;;;;;;;;;;;;;;;21.51;44.39;102554.06;7255184;19;153771;-56
2023/04/17 11:16:08;;;;;;;;;;;;;;;21.53;44.69;102549.00;7255732;19;153538;-56
2023/04/17 11:18:36;;;;;;;;;;;;;;;21.53;44.47;102551.81;7253466;19;154267;-56
2023/04/17 11:21:03;;;;;;;;;;;;;;;21.56;44.42;102554.09;7253529;19;154898;-56
2023/04/17 11:23:32;;;;;;;;;;;;;;;21.58;44.51;102559.44;7259136;19;154531;-56
2023/04/17 11:26:00;;;;;;;;;;;;;;;21.55;44.69;102554.38;7253875;19;153267;-56
2023/04/17 11:28:27;;;;;;;;;;;;;;;21.55;44.53;102551.56;7257236;19;153742;-56
2023/04/17 11:30:54;;;;;;;;;;;;;;;21.45;44.89;102555.16;7262412;19;153109;-56
2023/04/17 11:33:25;;;;;;;;;;;;;;;21.44;44.81;102556.28;7256292;19;153506;-56
2023/04/17 11:35:53;;;;;;;;;;;;;;;21.41;44.79;102558.81;7254622;19;153212;-56
2023/04/17 11:38:20;;;;;;;;;;;;;;;21.38;44.79;102551.78;7255530;19;152765;-56
2023/04/17 11:40:49;;;;;;;;;;;;;;;21.43;44.52;102548.16;7254256;19;152531;-56
2023/04/17 11:43:17;;;;;;;;;;;;;;;21.46;44.66;102551.25;7256076;19;153605;-56
2023/04/17 11:45:45;;;;;;;;;;;;;;;21.47;44.87;102555.75;7253750;19;156394;-56
2023/04/17 11:48:13;;;;;;;;;;;;;;;21.41;44.55;102556.84;7252692;19;153013;-56
2023/04/17 11:50:42;;;;;;;;;;;;;;;21.44;44.73;102547.84;7254570;19;153137;-56
2023/04/17 11:53:12;;;;;;;;;;;;;;;21.41;44.98;102562.47;7261292;19;153140;-56
2023/04/17 11:55:38;;;;;;;;;;;;;;;21.39;45.01;102555.44;7252398;19;152191;-56
2023/04/17 11:58:07;;;;;;;;;;;;;;;21.43;44.85;102556.59;7251963;19;153910;-56
2023/04/17 12:00:34;;;;;;;;;;;;;;;21.42;45.04;102557.69;7257093;19;154277;-56
2023/04/17 12:03:02;;;;;;;;;;;;;;;21.33;44.80;102557.38;7254082;19;152960;-56
2023/04/17 12:05:29;;;;;;;;;;;;;;;21.32;44.82;102555.69;7255151;19;154662;-56
2023/04/17 12:08:00;;;;;;;;;;;;;;;21.36;44.92;102547.53;7254635;19;153373;-56
2023/04/17 12:10:33;;;;;;;;;;;;;;;21.34;45.21;102550.66;7254702;19;153010;-56
2023/04/17 12:13:00;;;;;;;;;;;;;;;21.35;44.96;102557.13;7250947;19;155198;-56
2023/04/17 12:15:27;;;;;;;;;;;;;;;21.32;45.05;102554.84;7262609;19;152256;-56
2023/04/17 12:17:54;;;;;;;;;;;;;;;21.34;45.10;102553.47;7250266;19;155664;-56
2023/04/17 12:20:21;;;;;;;;;;;;;;;21.33;45.00;102550.91;7255539;19;153944;-56
2023/04/17 12:22:51;;;;;;;;;;;;;;;21.27;44.88;102553.69;7249903;19;152199;-56
2023/04/17 12:25:18;;;;;;;;;;;;;;;21.29;44.85;102550.63;7251384;19;153129;-56
2023/04/17 12:27:45;;;;;;;;;;;;;;;21.28;44.82;102551.72;7253519;19;152877;-56
2023/04/17 12:30:15;;;;;;;;;;;;;;;21.24;44.92;102553.41;7255493;19;154089;-56
2023/04/17 12:32:47;;;;;;;;;;;;;;;21.19;44.98;102547.75;7252556;19;155933;-56